Time;durP1;ratioP1;P1;durP2;ratioP2;P2;SDS_P1;SDS_P2;PMS_P1;PMS_P2;Temp;Humidity;BMP_temperature;BMP_pressure;BME280_temperature;BME280_humidity;BME280_pressure;Samples;Min_cycle;Max_cycle;Signal;HPM_P1;HPM_P2
2023/09/20 00:00:33;;;;;;;6.87;6.53;;;19.10;21.30;;;;;;4989103;28;20560;-78
2023/09/20 00:02:58;;;;;;;6.70;6.30;;;19.10;21.40;;;;;;4987622;28;20436;-78
2023/09/20 00:05:24;;;;;;;6.63;6.37;;;19.10;21.10;;;;;;4985643;28;20792;-78
2023/09/20 00:07:56;;;;;;;7.13;6.83;;;19.10;21.10;;;;;;4984352;28;20211;-78
2023/09/20 00:10:22;;;;;;;7.27;6.97;;;19.20;21.20;;;;;;4987301;28;20202;-77
2023/09/20 00:12:48;;;;;;;6.50;6.30;;;19.20;21.20;;;;;;4986395;28;20873;-77
2023/09/20 00:15:13;;;;;;;7.10;6.80;;;19.20;21.20;;;;;;4986390;28;20449;-80
2023/09/20 00:17:40;;;;;;;7.37;7.07;;;19.20;21.20;;;;;;4983060;28;20206;-78
2023/09/20 00:20:13;;;;;;;7.03;6.73;;;19.20;21.20;;;;;;4984853;28;20199;-77
2023/09/20 00:22:40;;;;;;;6.93;6.73;;;19.20;21.20;;;;;;4990648;28;20502;-79
2023/09/20 00:25:10;;;;;;;7.27;6.97;;;19.20;21.20;;;;;;4987246;28;20485;-77
2023/09/20 00:27:35;;;;;;;7.07;6.77;;;19.20;21.20;;;;;;4982603;28;20521;-79
2023/09/20 00:30:03;;;;;;;6.80;6.57;;;19.20;21.20;;;;;;4990634;28;20460;-78
2023/09/20 00:32:30;;;;;;;7.40;7.10;;;19.10;21.10;;;;;;4983752;28;20241;-79
2023/09/20 00:34:56;;;;;;;7.67;7.30;;;19.00;21.70;;;;;;4983588;28;20433;-78
2023/09/20 00:37:22;;;;;;;7.13;6.83;;;18.80;22.40;;;;;;4984998;28;20477;-79
2023/09/20 00:39:47;;;;;;;6.97;6.77;;;18.70;22.70;;;;;;4994065;28;20456;-77
2023/09/20 00:42:13;;;;;;;7.40;7.20;;;18.80;22.90;;;;;;4985007;28;20551;-77
2023/09/20 00:44:38;;;;;;;7.47;7.10;;;18.80;22.60;;;;;;4988685;28;20182;-79
2023/09/20 00:47:05;;;;;;;7.57;7.27;;;18.90;22.50;;;;;;4986503;28;20559;-78
2023/09/20 00:49:34;;;;;;;7.40;7.20;;;19.00;22.30;;;;;;4983596;28;20214;-77
2023/09/20 00:52:00;;;;;;;7.47;7.23;;;18.80;22.40;;;;;;4983594;28;20561;-77
2023/09/20 00:54:26;;;;;;;7.40;7.10;;;18.80;22.30;;;;;;4983539;28;20434;-78
2023/09/20 00:56:52;;;;;;;7.57;7.27;;;18.70;22.60;;;;;;4983390;28;20500;-76
2023/09/20 00:59:18;;;;;;;7.73;7.37;;;18.80;22.50;;;;;;4984066;28;20829;-76
2023/09/20 01:01:44;;;;;;;7.00;6.70;;;18.90;22.70;;;;;;4986538;28;20425;-79
2023/09/20 01:04:11;;;;;;;7.40;7.10;;;18.90;22.50;;;;;;4985619;28;20658;-77
2023/09/20 01:06:37;;;;;;;6.80;6.50;;;18.90;22.40;;;;;;4983353;28;20462;-78
2023/09/20 01:09:03;;;;;;;6.83;6.40;;;19.00;22.30;;;;;;4982793;28;20445;-78
2023/09/20 01:11:29;;;;;;;6.80;6.50;;;19.00;22.30;;;;;;4975046;28;20436;-79
2023/09/20 01:13:56;;;;;;;6.37;6.17;;;19.00;22.20;;;;;;4983132;28;20434;-78
2023/09/20 01:16:21;;;;;;;6.90;6.50;;;19.00;22.00;;;;;;4991112;28;20552;-78
2023/09/20 01:18:48;;;;;;;7.00;6.70;;;19.00;22.10;;;;;;4987746;28;20540;-79
2023/09/20 01:21:13;;;;;;;6.97;6.60;;;19.00;22.10;;;;;;4987317;28;20549;-77
2023/09/20 01:23:42;;;;;;;7.00;6.70;;;19.10;22.10;;;;;;4986190;28;20422;-78
2023/09/20 01:26:11;;;;;;;6.90;6.70;;;19.10;21.90;;;;;;5002138;28;20193;-77
2023/09/20 01:28:37;;;;;;;16.40;7.27;;;19.10;22.00;;;;;;4983780;28;20454;-78
2023/09/20 01:31:05;;;;;;;7.17;6.87;;;19.10;21.90;;;;;;4983986;28;20438;-79
2023/09/20 01:33:31;;;;;;;7.20;7.00;;;19.10;21.40;;;;;;4983592;28;20186;-77
2023/09/20 01:35:58;;;;;;;7.20;6.90;;;19.20;21.60;;;;;;4982652;28;20461;-76
2023/09/20 01:38:26;;;;;;;6.77;6.40;;;19.10;21.50;;;;;;4986759;28;20985;-79
2023/09/20 01:40:56;;;;;;;7.47;7.17;;;19.10;21.10;;;;;;4987554;28;20917;-77
2023/09/20 01:43:25;;;;;;;7.40;7.10;;;19.10;21.10;;;;;;4977642;28;20492;-79
2023/09/20 01:45:51;;;;;;;6.63;6.43;;;19.20;21.20;;;;;;4986995;28;20796;-78
2023/09/20 01:48:17;;;;;;;6.80;6.53;;;19.10;21.10;;;;;;4984967;28;20449;-77
2023/09/20 01:50:43;;;;;;;6.63;6.33;;;19.10;21.10;;;;;;4988579;28;20190;-77
2023/09/20 01:53:10;;;;;;;7.03;6.73;;;19.10;21.10;;;;;;4986127;28;20186;-78
2023/09/20 01:55:37;;;;;;;7.17;6.80;;;19.10;21.10;;;;;;4982235;28;20512;-78
2023/09/20 01:58:05;;;;;;;7.03;6.73;;;18.80;21.60;;;;;;4982886;28;20473;-78
2023/09/20 02:00:32;;;;;;;7.27;6.97;;;18.80;22.70;;;;;;4981888;28;20450;-77
2023/09/20 02:03:08;;;;;;;7.20;6.90;;;18.50;22.70;;;;;;4980704;28;20508;-78
2023/09/20 02:05:36;;;;;;;7.30;6.90;;;18.40;22.80;;;;;;4982925;28;20450;-78
2023/09/20 02:08:02;;;;;;;7.53;7.23;;;18.30;23.00;;;;;;4981589;28;20528;-79
2023/09/20 02:10:28;;;;;;;6.93;6.70;;;18.20;23.40;;;;;;4985825;28;20836;-79
2023/09/20 02:12:55;;;;;;;7.70;7.23;;;18.10;23.60;;;;;;4985931;28;20432;-79
2023/09/20 02:15:23;;;;;;;7.47;7.17;;;17.90;23.80;;;;;;4985932;28;20186;-77
2023/09/20 02:17:50;;;;;;;7.70;7.40;;;17.90;24.10;;;;;;5003098;28;20509;-76
2023/09/20 02:20:19;;;;;;;8.17;7.67;;;17.80;24.40;;;;;;4982900;28;20422;-76
2023/09/20 02:22:47;;;;;;;7.63;7.23;;;17.70;24.60;;;;;;4985971;28;20429;-77
2023/09/20 02:25:14;;;;;;;7.57;7.27;;;17.70;24.80;;;;;;4983652;28;20425;-77
2023/09/20 02:27:43;;;;;;;7.47;7.17;;;17.70;25.10;;;;;;4982352;28;20445;-77
2023/09/20 02:30:12;;;;;;;7.47;7.20;;;17.70;24.90;;;;;;4980990;28;20484;-79
2023/09/20 02:32:38;;;;;;;7.90;7.60;;;17.90;24.60;;;;;;4984326;28;20533;-80
2023/09/20 02:35:04;;;;;;;8.20;7.70;;;18.10;24.40;;;;;;4988936;28;20529;-78
2023/09/20 02:37:30;;;;;;;8.00;7.70;;;18.30;23.90;;;;;;4983880;28;20221;-77
2023/09/20 02:39:56;;;;;;;7.73;7.40;;;18.40;23.50;;;;;;4985595;28;20440;-79
2023/09/20 02:42:24;;;;;;;8.23;7.90;;;18.50;23.30;;;;;;4983405;28;20429;-78
2023/09/20 02:44:51;;;;;;;7.63;7.23;;;18.60;23.00;;;;;;4981295;28;20793;-77
2023/09/20 02:47:18;;;;;;;8.00;7.63;;;18.50;22.50;;;;;;4981970;28;20526;-79
2023/09/20 02:49:48;;;;;;;7.60;7.20;;;18.50;22.90;;;;;;4987335;28;20461;-79
2023/09/20 02:52:17;;;;;;;7.90;7.60;;;18.40;23.30;;;;;;4982421;28;20496;-78
2023/09/20 02:54:43;;;;;;;7.80;7.50;;;18.50;23.10;;;;;;4985271;28;20452;-78
2023/09/20 02:57:11;;;;;;;8.50;8.00;;;18.60;23.20;;;;;;5000288;28;20468;-79
2023/09/20 02:59:38;;;;;;;7.70;7.40;;;18.60;22.90;;;;;;4982308;28;20792;-79
2023/09/20 03:02:04;;;;;;;8.60;8.13;;;18.70;22.80;;;;;;5005997;28;20422;-80
2023/09/20 03:04:30;;;;;;;8.20;7.80;;;18.70;22.50;;;;;;4988986;28;20424;-79
2023/09/20 03:06:55;;;;;;;10.70;9.90;;;18.70;22.60;;;;;;4985476;28;20421;-78
2023/09/20 03:09:24;;;;;;;7.90;7.60;;;18.70;22.60;;;;;;4987022;28;20273;-79
2023/09/20 03:11:51;;;;;;;8.10;7.70;;;18.60;23.00;;;;;;4982832;28;20557;-79
2023/09/20 03:14:17;;;;;;;7.30;7.00;;;18.60;23.10;;;;;;4985601;28;20505;-79
2023/09/20 03:16:43;;;;;;;8.20;7.80;;;18.70;23.20;;;;;;5009102;28;20476;-78
2023/09/20 03:19:10;;;;;;;8.40;8.10;;;18.70;23.10;;;;;;4993229;28;20526;-78
2023/09/20 03:21:35;;;;;;;8.30;7.97;;;18.70;23.00;;;;;;4991881;28;20430;-78
2023/09/20 03:24:08;;;;;;;8.60;8.20;;;18.80;22.80;;;;;;4992578;28;20967;-77
2023/09/20 03:26:35;;;;;;;8.30;7.70;;;18.80;22.80;;;;;;4981077;28;20221;-78
2023/09/20 03:29:04;;;;;;;7.90;7.60;;;18.80;22.70;;;;;;4982222;28;20738;-80
2023/09/20 03:31:33;;;;;;;8.40;8.10;;;18.80;22.90;;;;;;4986950;28;20429;-77
2023/09/20 03:34:03;;;;;;;7.60;7.30;;;18.80;22.90;;;;;;4988699;28;20475;-79
2023/09/20 03:36:29;;;;;;;8.27;7.97;;;18.70;22.90;;;;;;4993475;28;20472;-78
2023/09/20 03:38:57;;;;;;;8.30;8.00;;;18.80;22.90;;;;;;5006590;28;20451;-78
2023/09/20 03:41:24;;;;;;;8.50;8.03;;;18.80;22.90;;;;;;4996598;28;20186;-78
2023/09/20 03:43:50;;;;;;;8.50;8.20;;;18.80;22.90;;;;;;4984831;28;20914;-79
2023/09/20 03:46:15;;;;;;;8.20;7.90;;;18.70;22.90;;;;;;4985260;28;20453;-77
2023/09/20 03:48:41;;;;;;;8.63;8.33;;;18.70;22.90;;;;;;4992643;28;20797;-78
2023/09/20 03:51:13;;;;;;;9.13;8.40;;;18.70;23.00;;;;;;4985649;28;20234;-78
2023/09/20 03:53:38;;;;;;;8.53;8.13;;;18.70;22.90;;;;;;4984973;28;20453;-79
2023/09/20 03:56:05;;;;;;;8.03;7.73;;;18.70;22.90;;;;;;4988351;28;20489;-79
2023/09/20 03:58:31;;;;;;;8.60;8.20;;;18.70;23.00;;;;;;4986916;28;20257;-76
2023/09/20 04:00:56;;;;;;;8.50;8.10;;;18.70;22.90;;;;;;4987721;28;20425;-79
2023/09/20 04:03:22;;;;;;;8.20;7.90;;;18.70;23.00;;;;;;4985304;28;20178;-77
2023/09/20 04:05:48;;;;;;;8.87;8.47;;;18.70;23.00;;;;;;4982883;28;20178;-79
2023/09/20 04:08:16;;;;;;;8.60;8.30;;;18.70;22.90;;;;;;4984232;28;20199;-78
2023/09/20 04:10:42;;;;;;;8.87;8.47;;;18.70;22.90;;;;;;4987615;28;20451;-78
2023/09/20 04:13:08;;;;;;;8.43;8.13;;;18.70;23.00;;;;;;4985949;28;20425;-77
2023/09/20 04:15:37;;;;;;;9.20;8.80;;;18.70;23.10;;;;;;4991522;28;20205;-79
2023/09/20 04:18:08;;;;;;;8.93;8.47;;;18.70;23.20;;;;;;4982640;28;20460;-79
2023/09/20 04:20:33;;;;;;;8.77;8.47;;;18.60;23.20;;;;;;4987014;28;20421;-79
2023/09/20 04:22:59;;;;;;;9.40;8.90;;;18.60;23.80;;;;;;4985956;28;20429;-79
2023/09/20 04:25:25;;;;;;;8.33;8.03;;;18.50;23.40;;;;;;4986171;28;20185;-79
2023/09/20 04:27:50;;;;;;;8.70;8.40;;;18.60;23.50;;;;;;4987131;28;20285;-79
2023/09/20 04:30:18;;;;;;;8.03;7.73;;;18.50;23.30;;;;;;4988151;28;20426;-78
2023/09/20 04:32:43;;;;;;;8.30;8.00;;;18.50;23.40;;;;;;4996973;28;20189;-79
2023/09/20 04:35:09;;;;;;;8.80;8.40;;;18.50;23.30;;;;;;4988544;28;20429;-78
2023/09/20 04:37:34;;;;;;;8.77;8.47;;;18.50;23.30;;;;;;4984113;28;20215;-77
2023/09/20 04:40:00;;;;;;;8.47;8.17;;;18.60;23.70;;;;;;4983633;28;20189;-77
2023/09/20 04:42:27;;;;;;;7.90;7.60;;;18.50;23.20;;;;;;4989036;28;20265;-78
2023/09/20 04:44:53;;;;;;;8.30;8.00;;;18.50;23.60;;;;;;4982204;28;20270;-79
2023/09/20 04:47:19;;;;;;;8.40;8.10;;;18.50;23.30;;;;;;4984020;28;20538;-76
2023/09/20 04:49:45;;;;;;;8.70;8.30;;;18.60;23.30;;;;;;4985363;28;20232;-78
2023/09/20 04:52:11;;;;;;;9.00;8.70;;;18.60;23.00;;;;;;4986500;28;20956;-77
2023/09/20 04:54:37;;;;;;;7.90;7.60;;;18.60;23.20;;;;;;4992892;28;20204;-77
2023/09/20 04:57:04;;;;;;;9.13;8.50;;;18.50;23.30;;;;;;4986465;28;20261;-77
2023/09/20 04:59:31;;;;;;;7.90;7.57;;;18.50;23.20;;;;;;4999321;28;20525;-77
2023/09/20 05:01:57;;;;;;;8.03;7.73;;;18.50;23.30;;;;;;4983183;28;20426;-77
2023/09/20 05:04:22;;;;;;;9.13;8.83;;;18.50;23.40;;;;;;4982771;28;20506;-77
2023/09/20 05:06:49;;;;;;;9.63;9.23;;;18.50;23.40;;;;;;4989078;28;20654;-78
2023/09/20 05:09:15;;;;;;;8.83;8.53;;;18.50;23.50;;;;;;4983109;28;20198;-77
2023/09/20 05:11:41;;;;;;;8.80;8.40;;;18.50;23.80;;;;;;4986346;28;20589;-77
2023/09/20 05:14:06;;;;;;;8.63;8.03;;;18.50;24.00;;;;;;4985325;28;20177;-78
2023/09/20 05:16:32;;;;;;;8.83;8.40;;;18.50;23.60;;;;;;4986255;28;20707;-78
2023/09/20 05:18:58;;;;;;;8.40;8.00;;;18.50;23.80;;;;;;4984958;28;20205;-79
2023/09/20 05:21:23;;;;;;;8.67;8.10;;;18.50;23.60;;;;;;4984989;28;20185;-79
2023/09/20 05:23:49;;;;;;;8.80;8.30;;;18.50;23.60;;;;;;4982899;28;20179;-76
2023/09/20 05:26:14;;;;;;;8.80;8.40;;;18.40;23.60;;;;;;4982368;28;20187;-75
2023/09/20 05:28:40;;;;;;;9.70;9.20;;;18.40;23.70;;;;;;4986845;28;20689;-79
2023/09/20 05:31:05;;;;;;;9.10;8.30;;;18.50;24.10;;;;;;4995167;28;20264;-78
2023/09/20 05:33:32;;;;;;;8.37;8.00;;;18.40;23.60;;;;;;4985990;28;20225;-78
2023/09/20 05:36:00;;;;;;;9.13;8.63;;;18.50;23.50;;;;;;4983132;28;20214;-77
2023/09/20 05:38:26;;;;;;;8.90;8.53;;;18.40;23.50;;;;;;4983948;28;20462;-78
2023/09/20 05:40:52;;;;;;;10.30;9.70;;;18.40;23.80;;;;;;4987619;28;20783;-78
2023/09/20 05:43:18;;;;;;;9.60;9.20;;;18.40;23.70;;;;;;4988614;28;20187;-79
2023/09/20 05:45:43;;;;;;;10.70;10.30;;;18.40;23.80;;;;;;4985115;28;20211;-78
2023/09/20 05:48:12;;;;;;;9.80;9.40;;;18.50;23.60;;;;;;4985246;28;20321;-78
2023/09/20 05:50:40;;;;;;;10.23;9.47;;;18.40;24.10;;;;;;4987504;28;20186;-78
2023/09/20 05:53:07;;;;;;;8.90;8.50;;;18.30;24.20;;;;;;4987385;28;20512;-78
2023/09/20 05:55:43;;;;;;;9.07;8.67;;;18.30;24.50;;;;;;4985348;28;20417;-77
2023/09/20 05:58:09;;;;;;;8.27;7.97;;;18.30;24.50;;;;;;4990940;28;20463;-78
2023/09/20 06:00:36;;;;;;;8.80;8.40;;;18.30;23.70;;;;;;4985090;28;20480;-78
2023/09/20 06:03:04;;;;;;;8.80;8.40;;;18.10;24.50;;;;;;4991332;28;20429;-77
2023/09/20 06:05:37;;;;;;;9.77;9.27;;;18.00;24.60;;;;;;4989213;28;20193;-78
2023/09/20 06:08:06;;;;;;;8.77;8.27;;;17.80;25.20;;;;;;4983584;28;20445;-78
2023/09/20 06:10:32;;;;;;;8.40;8.00;;;17.70;25.30;;;;;;4990170;28;20476;-77
2023/09/20 06:12:58;;;;;;;9.40;8.90;;;17.70;25.30;;;;;;4987407;28;20972;-78
2023/09/20 06:15:24;;;;;;;9.20;8.50;;;17.70;25.40;;;;;;4986171;28;20425;-78
2023/09/20 06:17:49;;;;;;;9.53;8.93;;;17.80;25.20;;;;;;4982409;28;20461;-77
2023/09/20 06:20:24;;;;;;;9.30;8.70;;;17.80;25.30;;;;;;4983074;28;20175;-78
2023/09/20 06:22:50;;;;;;;8.53;8.03;;;17.80;25.30;;;;;;4982321;28;20174;-78
2023/09/20 06:25:19;;;;;;;9.13;8.77;;;17.90;25.00;;;;;;4984149;28;20422;-78
2023/09/20 06:27:45;;;;;;;9.63;9.23;;;18.00;25.30;;;;;;4988208;28;20527;-78
2023/09/20 06:30:14;;;;;;;9.10;8.73;;;18.20;25.20;;;;;;4994018;28;20437;-77
2023/09/20 06:32:44;;;;;;;9.10;8.70;;;18.20;24.90;;;;;;4988635;28;20185;-78
2023/09/20 06:35:10;;;;;;;9.30;8.70;;;18.20;24.50;;;;;;4985378;28;20504;-78
2023/09/20 06:37:36;;;;;;;9.00;8.60;;;18.40;24.70;;;;;;5001985;28;20495;-79
2023/09/20 06:40:05;;;;;;;8.77;8.47;;;18.50;24.90;;;;;;4992428;28;20426;-78
2023/09/20 06:42:31;;;;;;;8.47;8.07;;;18.50;23.80;;;;;;4992864;28;20429;-78
2023/09/20 06:44:57;;;;;;;9.03;8.53;;;18.60;23.70;;;;;;4988887;28;20501;-78
2023/09/20 06:47:23;;;;;;;7.33;7.03;;;18.60;23.40;;;;;;4985660;28;20191;-78
2023/09/20 06:49:49;;;;;;;9.90;8.43;;;18.50;23.40;;;;;;4985660;28;20228;-78
2023/09/20 06:52:15;;;;;;;8.83;7.90;;;18.40;23.40;;;;;;4986639;28;20428;-79
2023/09/20 06:54:40;;;;;;;7.80;7.40;;;18.40;23.70;;;;;;4984450;28;20208;-79
2023/09/20 06:57:06;;;;;;;7.70;7.40;;;18.40;23.80;;;;;;4981140;28;20210;-79
2023/09/20 06:59:33;;;;;;;7.90;7.23;;;18.50;23.80;;;;;;4985455;28;20276;-78
2023/09/20 07:02:01;;;;;;;7.90;7.30;;;18.50;23.70;;;;;;4983684;28;20179;-78
2023/09/20 07:04:27;;;;;;;8.67;8.37;;;18.60;23.50;;;;;;4982638;28;20431;-78
2023/09/20 07:06:57;;;;;;;7.40;7.00;;;18.60;23.80;;;;;;4986913;28;20913;-79
2023/09/20 07:09:23;;;;;;;7.80;7.50;;;18.70;23.30;;;;;;4987465;28;20437;-79
2023/09/20 07:11:51;;;;;;;7.50;7.20;;;18.70;23.30;;;;;;4983246;28;20441;-78
2023/09/20 07:14:20;;;;;;;8.50;8.10;;;18.80;23.20;;;;;;4991909;28;20240;-78
2023/09/20 07:16:51;;;;;;;8.73;8.33;;;18.90;23.30;;;;;;4985992;28;20531;-79
2023/09/20 07:19:18;;;;;;;7.93;7.63;;;19.00;23.00;;;;;;4985661;28;20513;-78
2023/09/20 07:21:45;;;;;;;8.00;7.60;;;19.10;22.70;;;;;;4987539;28;20433;-77
2023/09/20 07:24:12;;;;;;;8.80;8.20;;;19.10;22.20;;;;;;4987216;28;20425;-77
2023/09/20 07:26:39;;;;;;;7.83;7.43;;;19.10;22.20;;;;;;4989317;28;20441;-80
2023/09/20 07:29:05;;;;;;;7.93;7.40;;;19.10;23.10;;;;;;4988400;28;20461;-79
2023/09/20 07:31:36;;;;;;;8.13;7.73;;;19.20;22.20;;;;;;4978703;28;20445;-78
2023/09/20 07:34:04;;;;;;;7.97;7.57;;;19.30;22.70;;;;;;5003913;28;20799;-79
2023/09/20 07:36:33;;;;;;;7.57;7.13;;;19.30;22.00;;;;;;4988977;28;20468;-79
2023/09/20 07:38:59;;;;;;;8.37;7.83;;;19.40;22.10;;;;;;4985523;28;20871;-78
2023/09/20 07:41:24;;;;;;;7.70;7.30;;;19.40;21.90;;;;;;4987252;28;20430;-78
2023/09/20 07:43:53;;;;;;;7.70;7.30;;;19.40;21.60;;;;;;4987630;28;20425;-79
2023/09/20 07:46:20;;;;;;;8.17;7.80;;;19.50;21.40;;;;;;4989458;28;20272;-79
2023/09/20 07:48:50;;;;;;;7.83;7.53;;;19.50;21.40;;;;;;4986785;28;20899;-78
2023/09/20 07:51:23;;;;;;;8.57;8.03;;;19.40;21.30;;;;;;4985824;28;20436;-79
2023/09/20 07:53:53;;;;;;;7.73;7.43;;;19.40;21.30;;;;;;4988652;28;20925;-79
2023/09/20 07:56:20;;;;;;;8.20;7.50;;;19.40;21.30;;;;;;4988359;28;20460;-79
2023/09/20 07:58:46;;;;;;;7.60;7.10;;;19.40;21.30;;;;;;4986280;28;20459;-79
2023/09/20 08:01:20;;;;;;;7.13;6.73;;;19.40;21.30;;;;;;4985177;28;20430;-79
2023/09/20 08:03:52;;;;;;;6.73;6.43;;;19.50;21.30;;;;;;4987707;28;20434;-80
2023/09/20 08:06:20;;;;;;;7.00;6.50;;;19.50;21.30;;;;;;4987259;28;20436;-78
2023/09/20 08:08:47;;;;;;;7.67;7.30;;;19.60;21.40;;;;;;4986648;28;20453;-79
2023/09/20 08:11:13;;;;;;;7.97;7.20;;;19.60;21.40;;;;;;4985776;28;20441;-79
2023/09/20 08:13:39;;;;;;;7.67;7.13;;;19.60;21.40;;;;;;4987220;28;20437;-78
2023/09/20 08:16:09;;;;;;;8.23;7.63;;;19.70;22.50;;;;;;4991394;28;20217;-78
2023/09/20 08:21:22;;;;;;;8.37;7.67;;;19.80;21.60;;;;;;4988429;28;20436;-79
2023/09/20 08:59:54;;;;;;;7.90;7.20;;;21.00;19.50;;;;;;4991042;28;20448;-79
2023/09/20 09:02:21;;;;;;;7.00;6.60;;;21.40;19.50;;;;;;4989473;28;20430;-79
2023/09/20 09:04:54;;;;;;;6.10;5.80;;;21.70;17.80;;;;;;4989611;28;20425;-78
2023/09/20 09:07:22;;;;;;;7.70;7.17;;;21.90;14.50;;;;;;4989662;28;20488;-79
2023/09/20 09:09:49;;;;;;;6.30;6.00;;;22.10;14.10;;;;;;4988628;28;20421;-79
2023/09/20 09:12:15;;;;;;;7.00;6.70;;;22.30;13.70;;;;;;4987060;28;20506;-79
2023/09/20 09:14:41;;;;;;;7.63;7.30;;;22.50;13.60;;;;;;4986847;28;20437;-79
2023/09/20 09:17:09;;;;;;;6.70;6.40;;;22.60;13.10;;;;;;4990802;28;20511;-79
2023/09/20 09:19:35;;;;;;;7.10;6.80;;;22.70;12.60;;;;;;4989470;28;20445;-78
2023/09/20 09:22:10;;;;;;;6.70;6.40;;;22.70;12.50;;;;;;4987482;28;20414;-78
2023/09/20 09:24:47;;;;;;;7.03;6.73;;;22.70;12.60;;;;;;4967285;28;20445;-79
2023/09/20 09:27:14;;;;;;;7.03;6.67;;;22.90;12.80;;;;;;4970867;28;20422;-79
2023/09/20 09:29:42;;;;;;;6.00;5.80;;;23.00;12.30;;;;;;4969037;28;20857;-78
2023/09/20 09:32:07;;;;;;;6.40;6.10;;;23.10;13.10;;;;;;4968511;28;20429;-78
2023/09/20 09:34:34;;;;;;;6.60;6.27;;;23.20;13.00;;;;;;4965875;28;20455;-77
2023/09/20 09:37:00;;;;;;;6.90;6.40;;;23.30;12.40;;;;;;4971642;28;20205;-78
2023/09/20 09:39:26;;;;;;;6.70;6.40;;;23.30;12.20;;;;;;4970212;28;20446;-78
2023/09/20 09:41:52;;;;;;;7.30;6.80;;;23.40;12.10;;;;;;4968248;28;20433;-77
2023/09/20 09:44:19;;;;;;;6.30;6.07;;;23.40;12.30;;;;;;4968068;28;20636;-78
2023/09/20 09:46:44;;;;;;;6.83;6.53;;;23.40;12.10;;;;;;4962134;28;20486;-78
2023/09/20 09:49:18;;;;;;;7.30;6.80;;;23.40;12.30;;;;;;4969918;28;20454;-78
2023/09/20 09:51:50;;;;;;;7.10;6.80;;;23.50;12.10;;;;;;4972448;28;20184;-77
2023/09/20 09:54:17;;;;;;;6.60;6.30;;;23.60;11.70;;;;;;4973000;28;20426;-77
2023/09/20 09:56:43;;;;;;;7.17;6.87;;;23.50;11.30;;;;;;4970690;28;20462;-76
2023/09/20 09:59:10;;;;;;;7.50;7.20;;;23.50;11.00;;;;;;4972682;28;20444;-77
2023/09/20 10:01:37;;;;;;;7.57;7.07;;;23.50;9.60;;;;;;4984410;28;20424;-79
2023/09/20 10:04:10;;;;;;;7.20;6.60;;;23.60;9.60;;;;;;4975046;28;20525;-78
2023/09/20 10:06:39;;;;;;;7.53;7.13;;;23.60;8.90;;;;;;4972750;28;20418;-78
2023/09/20 10:09:10;;;;;;;6.93;6.73;;;23.70;8.60;;;;;;4970581;28;20447;-78
2023/09/20 10:11:37;;;;;;;7.97;7.57;;;23.70;8.30;;;;;;4966757;28;20427;-77
2023/09/20 10:14:07;;;;;;;7.00;6.67;;;23.80;8.30;;;;;;4962289;28;20434;-77
2023/09/20 10:16:34;;;;;;;11.23;10.33;;;23.90;8.50;;;;;;4986298;28;20466;-78
2023/09/20 10:19:01;;;;;;;7.03;6.73;;;24.00;8.50;;;;;;4961324;28;20447;-78
2023/09/20 10:21:30;;;;;;;7.33;6.93;;;24.10;7.20;;;;;;4970324;28;20422;-77
2023/09/20 10:24:26;;;;;;;7.20;6.77;;;24.10;7.00;;;;;;4973362;28;20923;-77
2023/09/20 10:26:54;;;;;;;7.23;6.77;;;24.20;7.00;;;;;;4971531;28;20517;-77
2023/09/20 10:29:23;;;;;;;7.27;6.97;;;24.10;7.00;;;;;;4969090;28;20466;-78
2023/09/20 10:31:52;;;;;;;7.10;6.80;;;24.10;6.60;;;;;;4970482;28;20459;-77
2023/09/20 10:34:21;;;;;;;7.80;7.10;;;24.20;6.60;;;;;;4968887;28;20430;-78
2023/09/20 10:36:53;;;;;;;11.23;10.40;;;24.30;6.10;;;;;;4966484;28;20970;-78
2023/09/20 10:39:19;;;;;;;6.57;6.17;;;24.40;6.20;;;;;;4965385;28;20439;-78
2023/09/20 10:41:46;;;;;;;6.00;5.80;;;24.50;6.30;;;;;;4965372;28;20943;-79
2023/09/20 10:44:28;;;;;;;7.67;7.30;;;24.50;5.90;;;;;;4971697;28;20184;-78
2023/09/20 10:46:55;;;;;;;7.57;7.17;;;24.50;5.80;;;;;;4966090;28;20423;-78
2023/09/20 10:49:48;;;;;;;7.70;7.30;;;24.50;6.10;;;;;;4968861;28;20532;-81
2023/09/20 10:52:34;;;;;;;7.90;7.50;;;24.50;5.60;;;;;;4959731;28;20442;-78
2023/09/20 10:55:35;;;;;;;8.27;7.87;;;24.60;5.50;;;;;;4976536;28;20917;-78
2023/09/20 10:58:01;;;;;;;7.17;6.87;;;24.60;4.80;;;;;;4966547;28;20519;-78
2023/09/20 11:00:30;;;;;;;6.73;6.53;;;24.70;5.00;;;;;;4963167;28;20433;-78
2023/09/20 11:02:56;;;;;;;6.83;6.53;;;24.80;4.80;;;;;;4966199;28;20181;-78
2023/09/20 11:05:23;;;;;;;7.13;6.83;;;24.70;5.10;;;;;;4972327;28;20422;-78
2023/09/20 11:07:50;;;;;;;6.73;6.43;;;24.70;4.30;;;;;;4967301;28;20768;-78
2023/09/20 11:10:19;;;;;;;6.87;6.47;;;24.70;3.40;;;;;;4965439;28;20434;-79
2023/09/20 11:12:45;;;;;;;6.60;6.30;;;24.60;2.40;;;;;;4966539;28;20435;-80
2023/09/20 11:15:11;;;;;;;6.80;6.50;;;24.70;2.80;;;;;;4968486;28;20509;-78
2023/09/20 11:17:36;;;;;;;6.60;6.30;;;24.60;3.40;;;;;;4964331;28;20211;-78
2023/09/20 11:20:06;;;;;;;6.70;6.30;;;24.80;3.60;;;;;;4961256;28;20178;-78
2023/09/20 11:22:32;;;;;;;7.10;6.70;;;24.70;3.60;;;;;;4960102;28;20183;-77
2023/09/20 11:24:57;;;;;;;7.10;6.80;;;24.80;4.00;;;;;;4967887;28;20869;-78
2023/09/20 11:27:23;;;;;;;7.00;6.70;;;24.80;4.80;;;;;;4963928;28;20606;-78
2023/09/20 11:29:49;;;;;;;8.00;7.60;;;24.80;5.10;;;;;;5023101;23;20300;-78
2023/09/20 11:32:17;;;;;;;7.27;6.97;;;24.70;4.50;;;;;;5015646;28;20679;-77
2023/09/20 11:34:49;;;;;;;6.67;6.37;;;24.80;4.40;;;;;;5017124;28;20177;-77
2023/09/20 11:37:17;;;;;;;6.50;6.20;;;24.70;4.50;;;;;;5016451;28;20470;-78
2023/09/20 11:39:44;;;;;;;7.13;6.57;;;24.70;5.10;;;;;;4998736;28;20452;-78
2023/09/20 11:42:12;;;;;;;7.23;6.93;;;24.70;4.80;;;;;;4998695;28;20422;-78
2023/09/20 11:44:37;;;;;;;7.30;6.90;;;24.90;5.60;;;;;;4994514;28;20424;-77
2023/09/20 11:47:03;;;;;;;6.67;6.40;;;24.80;5.10;;;;;;5003675;28;20429;-77
2023/09/20 11:49:29;;;;;;;6.70;6.10;;;25.00;4.40;;;;;;5001398;28;20260;-78
2023/09/20 11:51:57;;;;;;;6.77;6.57;;;25.00;4.60;;;;;;5002775;28;20185;-78
2023/09/20 11:54:34;;;;;;;7.27;6.80;;;25.10;5.10;;;;;;5008238;28;20427;-78
2023/09/20 11:57:02;;;;;;;6.60;6.40;;;25.10;5.40;;;;;;5005264;28;20535;-78
2023/09/20 11:59:28;;;;;;;5.80;5.60;;;25.10;4.30;;;;;;5003198;28;21170;-78
2023/09/20 12:01:54;;;;;;;6.57;6.20;;;25.00;5.10;;;;;;5003616;28;20440;-78
2023/09/20 12:04:20;;;;;;;6.27;5.97;;;25.00;5.30;;;;;;4999295;28;20174;-78
2023/09/20 12:06:46;;;;;;;6.90;6.50;;;25.00;5.80;;;;;;5005496;28;20951;-78
2023/09/20 12:09:12;;;;;;;6.90;6.50;;;25.00;6.30;;;;;;5013662;28;20527;-78
2023/09/20 12:11:38;;;;;;;6.43;6.23;;;25.00;7.10;;;;;;5013926;28;20173;-78
2023/09/20 12:14:04;;;;;;;7.13;6.83;;;24.90;7.30;;;;;;5014346;28;20416;-78
2023/09/20 12:16:30;;;;;;;5.80;5.60;;;24.90;7.50;;;;;;5010868;28;20487;-78
2023/09/20 12:18:56;;;;;;;6.77;6.47;;;24.80;7.40;;;;;;5009484;28;20213;-78
2023/09/20 12:21:22;;;;;;;5.80;5.60;;;24.90;7.50;;;;;;5008449;28;20177;-78
2023/09/20 12:23:49;;;;;;;6.40;6.20;;;24.90;7.50;;;;;;5012040;28;20779;-78
2023/09/20 12:26:16;;;;;;;6.43;6.03;;;25.00;7.60;;;;;;5002608;28;20185;-77
2023/09/20 12:28:42;;;;;;;6.70;6.40;;;25.00;7.60;;;;;;5010025;28;20547;-78
2023/09/20 12:31:08;;;;;;;6.80;6.50;;;25.10;8.00;;;;;;5014200;28;20914;-78
2023/09/20 12:33:34;;;;;;;5.80;5.50;;;25.20;7.60;;;;;;5015319;28;20190;-78
2023/09/20 12:36:00;;;;;;;6.43;6.03;;;25.20;7.10;;;;;;5012446;28;20432;-77
2023/09/20 12:38:29;;;;;;;6.20;5.90;;;25.30;7.30;;;;;;5013706;28;20227;-77
2023/09/20 12:40:56;;;;;;;6.43;6.13;;;25.30;7.30;;;;;;5011857;28;20272;-78
2023/09/20 12:43:22;;;;;;;5.80;5.60;;;25.30;7.70;;;;;;5006067;28;20420;-77
2023/09/20 12:45:47;;;;;;;5.97;5.77;;;25.50;6.50;;;;;;5004895;28;20413;-77
2023/09/20 12:48:13;;;;;;;5.70;5.40;;;25.60;6.10;;;;;;5007654;28;20205;-77
2023/09/20 12:50:41;;;;;;;5.77;5.47;;;25.50;5.30;;;;;;5007834;28;20505;-78
2023/09/20 12:53:08;;;;;;;6.00;5.70;;;25.50;5.80;;;;;;5003252;28;20182;-78
2023/09/20 12:55:38;;;;;;;5.87;5.67;;;25.50;6.50;;;;;;5009181;28;20420;-78
2023/09/20 12:58:06;;;;;;;5.90;5.50;;;25.30;6.80;;;;;;5016335;28;20472;-78
2023/09/20 13:00:35;;;;;;;5.37;5.17;;;25.20;7.00;;;;;;5005058;28;20421;-77
2023/09/20 13:03:05;;;;;;;5.37;5.07;;;25.10;7.00;;;;;;5005771;28;20440;-77
2023/09/20 13:05:30;;;;;;;5.30;5.10;;;25.10;6.90;;;;;;5009430;28;20458;-77
2023/09/20 13:07:57;;;;;;;5.60;5.30;;;25.10;7.60;;;;;;5005670;28;20449;-77
2023/09/20 13:10:23;;;;;;;5.97;5.67;;;25.30;4.80;;;;;;5007241;28;20188;-77
2023/09/20 13:12:49;;;;;;;5.70;5.50;;;25.50;4.70;;;;;;5007806;28;20435;-77
2023/09/20 13:15:16;;;;;;;5.70;5.50;;;25.60;3.80;;;;;;5005120;28;20429;-76
2023/09/20 13:17:45;;;;;;;6.30;6.00;;;25.70;3.70;;;;;;5004225;28;20202;-77
2023/09/20 13:20:13;;;;;;;6.00;5.77;;;25.80;3.80;;;;;;5000396;28;20413;-77
2023/09/20 13:22:42;;;;;;;6.20;5.90;;;25.70;3.70;;;;;;5004341;28;20946;-77
2023/09/20 13:25:08;;;;;;;5.93;5.63;;;25.70;3.30;;;;;;5015950;28;20424;-77
2023/09/20 13:27:35;;;;;;;6.40;6.10;;;25.60;3.80;;;;;;5010062;28;20432;-77
2023/09/20 13:30:09;;;;;;;6.37;6.07;;;25.50;3.80;;;;;;5005906;28;20440;-77